sensor_id;sensor_type;location;lat;lon;timestamp;pressure;altitude;pressure_sealevel;temperature;humidity
73501;BME280;61721;42.206;25.320;2022-07-25T00:00:15;99252.41;;;28.72;40.26
73501;BME280;61721;42.206;25.320;2022-07-25T00:02:43;99261.53;;;28.88;39.54
73501;BME280;61721;42.206;25.320;2022-07-25T00:05:10;99268.44;;;28.96;39.02
73501;BME280;61721;42.206;25.320;2022-07-25T00:07:39;99259.66;;;29.09;38.65
73501;BME280;61721;42.206;25.320;2022-07-25T00:10:07;99270.13;;;29.17;38.35
73501;BME280;61721;42.206;25.320;2022-07-25T00:12:34;99266.81;;;29.10;39.22
73501;BME280;61721;42.206;25.320;2022-07-25T00:15:02;99267.34;;;28.97;39.79
73501;BME280;61721;42.206;25.320;2022-07-25T00:17:29;99261.78;;;28.81;39.97
73501;BME280;61721;42.206;25.320;2022-07-25T00:19:56;99273.63;;;28.77;40.16
73501;BME280;61721;42.206;25.320;2022-07-25T00:22:24;99284.56;;;28.62;40.59
73501;BME280;61721;42.206;25.320;2022-07-25T00:24:52;99289.56;;;28.65;40.71
73501;BME280;61721;42.206;25.320;2022-07-25T00:27:19;99288.13;;;28.57;40.70
73501;BME280;61721;42.206;25.320;2022-07-25T00:29:46;99294.22;;;28.59;40.71
73501;BME280;61721;42.206;25.320;2022-07-25T00:32:14;99292.19;;;28.44;41.37
73501;BME280;61721;42.206;25.320;2022-07-25T00:34:41;99296.19;;;28.17;41.98
73501;BME280;61721;42.206;25.320;2022-07-25T00:37:08;99299.56;;;28.29;41.50
73501;BME280;61721;42.206;25.320;2022-07-25T00:39:35;99306.75;;;28.40;41.28
73501;BME280;61721;42.206;25.320;2022-07-25T00:42:04;99303.19;;;28.44;41.11
73501;BME280;61721;42.206;25.320;2022-07-25T00:44:32;99307.38;;;28.52;41.08
73501;BME280;61721;42.206;25.320;2022-07-25T00:46:59;99310.16;;;28.57;41.10
73501;BME280;61721;42.206;25.320;2022-07-25T00:49:26;99320.53;;;28.40;41.55
73501;BME280;61721;42.206;25.320;2022-07-25T00:51:54;99326.50;;;28.22;41.97
73501;BME280;61721;42.206;25.320;2022-07-25T00:54:21;99334.81;;;27.95;42.52
73501;BME280;61721;42.206;25.320;2022-07-25T00:56:49;99336.66;;;27.84;43.11
73501;BME280;61721;42.206;25.320;2022-07-25T00:59:18;99343.78;;;27.80;42.74
73501;BME280;61721;42.206;25.320;2022-07-25T01:01:45;99331.94;;;27.80;43.20
73501;BME280;61721;42.206;25.320;2022-07-25T01:04:13;99350.69;;;27.83;43.04
73501;BME280;61721;42.206;25.320;2022-07-25T01:06:40;99352.06;;;27.85;43.36
73501;BME280;61721;42.206;25.320;2022-07-25T01:09:08;99341.28;;;27.79;43.02
73501;BME280;61721;42.206;25.320;2022-07-25T01:11:35;99357.22;;;27.77;44.24
73501;BME280;61721;42.206;25.320;2022-07-25T01:14:03;99367.41;;;27.76;44.62
73501;BME280;61721;42.206;25.320;2022-07-25T01:16:31;99358.22;;;27.65;45.32
73501;BME280;61721;42.206;25.320;2022-07-25T01:19:00;99360.63;;;27.57;45.37
73501;BME280;61721;42.206;25.320;2022-07-25T01:21:28;99360.50;;;27.47;45.09
73501;BME280;61721;42.206;25.320;2022-07-25T01:23:56;99361.53;;;27.41;45.69
73501;BME280;61721;42.206;25.320;2022-07-25T01:26:23;99368.38;;;27.38;45.64
73501;BME280;61721;42.206;25.320;2022-07-25T01:28:50;99363.16;;;27.37;45.10
73501;BME280;61721;42.206;25.320;2022-07-25T01:31:17;99362.88;;;27.38;44.53
73501;BME280;61721;42.206;25.320;2022-07-25T01:33:44;99358.69;;;27.31;44.82
73501;BME280;61721;42.206;25.320;2022-07-25T01:36:12;99353.25;;;27.36;44.24
73501;BME280;61721;42.206;25.320;2022-07-25T01:38:40;99354.38;;;27.40;44.37
73501;BME280;61721;42.206;25.320;2022-07-25T01:41:07;99347.81;;;27.41;43.98
73501;BME280;61721;42.206;25.320;2022-07-25T01:43:34;99340.44;;;27.46;44.02
73501;BME280;61721;42.206;25.320;2022-07-25T01:46:02;99344.56;;;27.49;44.13
73501;BME280;61721;42.206;25.320;2022-07-25T01:48:29;99341.91;;;27.54;43.51
73501;BME280;61721;42.206;25.320;2022-07-25T01:50:56;99334.81;;;27.58;43.94
73501;BME280;61721;42.206;25.320;2022-07-25T01:53:23;99328.78;;;27.61;43.42
73501;BME280;61721;42.206;25.320;2022-07-25T01:55:52;99330.94;;;27.59;43.46
73501;BME280;61721;42.206;25.320;2022-07-25T01:58:19;99331.53;;;27.61;43.83
73501;BME280;61721;42.206;25.320;2022-07-25T02:00:46;99319.44;;;27.62;43.36
73501;BME280;61721;42.206;25.320;2022-07-25T02:03:13;99319.97;;;27.64;43.10
73501;BME280;61721;42.206;25.320;2022-07-25T02:05:55;99316.41;;;27.63;42.93
73501;BME280;61721;42.206;25.320;2022-07-25T02:08:23;99316.09;;;27.60;42.91
73501;BME280;61721;42.206;25.320;2022-07-25T02:10:51;99321.59;;;27.60;43.02
73501;BME280;61721;42.206;25.320;2022-07-25T02:13:19;99326.81;;;27.56;42.50
73501;BME280;61721;42.206;25.320;2022-07-25T02:15:46;99330.81;;;27.49;43.09
73501;BME280;61721;42.206;25.320;2022-07-25T02:18:14;99330.63;;;27.29;42.99
73501;BME280;61721;42.206;25.320;2022-07-25T02:20:41;99328.25;;;27.10;44.14
73501;BME280;61721;42.206;25.320;2022-07-25T02:23:09;99327.00;;;26.96;46.06
73501;BME280;61721;42.206;25.320;2022-07-25T02:25:36;99325.06;;;26.75;46.39
73501;BME280;61721;42.206;25.320;2022-07-25T02:28:05;99319.78;;;26.68;47.39
73501;BME280;61721;42.206;25.320;2022-07-25T02:30:32;99309.63;;;26.69;46.48
73501;BME280;61721;42.206;25.320;2022-07-25T02:32:59;99314.69;;;26.82;46.58
73501;BME280;61721;42.206;25.320;2022-07-25T02:35:26;99317.91;;;26.74;47.58
73501;BME280;61721;42.206;25.320;2022-07-25T02:37:53;99317.16;;;26.78;47.75
73501;BME280;61721;42.206;25.320;2022-07-25T02:40:20;99318.88;;;26.63;49.42
73501;BME280;61721;42.206;25.320;2022-07-25T02:42:47;99325.38;;;26.57;49.41
73501;BME280;61721;42.206;25.320;2022-07-25T02:45:16;99313.19;;;26.48;49.45
73501;BME280;61721;42.206;25.320;2022-07-25T02:47:43;99317.34;;;26.50;49.06
73501;BME280;61721;42.206;25.320;2022-07-25T02:50:11;99313.91;;;26.60;48.83
73501;BME280;61721;42.206;25.320;2022-07-25T02:52:38;99311.78;;;26.67;48.96
73501;BME280;61721;42.206;25.320;2022-07-25T02:55:06;99313.78;;;26.71;48.92
73501;BME280;61721;42.206;25.320;2022-07-25T02:57:33;99317.91;;;26.74;48.77
73501;BME280;61721;42.206;25.320;2022-07-25T03:00:00;99313.56;;;26.78;49.46
73501;BME280;61721;42.206;25.320;2022-07-25T03:02:29;99313.00;;;26.76;49.27
73501;BME280;61721;42.206;25.320;2022-07-25T03:04:56;99312.13;;;26.70;48.97
73501;BME280;61721;42.206;25.320;2022-07-25T03:07:23;99313.66;;;26.61;48.97
73501;BME280;61721;42.206;25.320;2022-07-25T03:09:50;99307.81;;;26.58;48.89
73501;BME280;61721;42.206;25.320;2022-07-25T03:12:17;99311.16;;;26.60;48.32
73501;BME280;61721;42.206;25.320;2022-07-25T03:14:44;99310.16;;;26.66;48.46
73501;BME280;61721;42.206;25.320;2022-07-25T03:17:11;99305.28;;;26.73;47.86
73501;BME280;61721;42.206;25.320;2022-07-25T03:19:40;99305.16;;;26.63;48.26
73501;BME280;61721;42.206;25.320;2022-07-25T03:22:07;99326.81;;;26.59;48.50
73501;BME280;61721;42.206;25.320;2022-07-25T03:24:34;99321.34;;;26.43;49.21
73501;BME280;61721;42.206;25.320;2022-07-25T03:27:02;99327.50;;;26.50;48.96
73501;BME280;61721;42.206;25.320;2022-07-25T03:29:29;99330.34;;;26.21;48.01
73501;BME280;61721;42.206;25.320;2022-07-25T03:31:56;99333.47;;;26.47;47.28
73501;BME280;61721;42.206;25.320;2022-07-25T03:34:23;99334.78;;;26.61;48.42
73501;BME280;61721;42.206;25.320;2022-07-25T03:36:52;99329.31;;;26.61;48.98
73501;BME280;61721;42.206;25.320;2022-07-25T03:39:20;99340.78;;;26.58;48.72
73501;BME280;61721;42.206;25.320;2022-07-25T03:41:49;99334.59;;;26.46;49.43
73501;BME280;61721;42.206;25.320;2022-07-25T03:44:17;99344.16;;;26.43;48.47
73501;BME280;61721;42.206;25.320;2022-07-25T03:46:44;99333.00;;;26.50;48.67
73501;BME280;61721;42.206;25.320;2022-07-25T03:49:12;99346.78;;;26.55;48.02
73501;BME280;61721;42.206;25.320;2022-07-25T03:51:39;99342.56;;;26.69;48.10
73501;BME280;61721;42.206;25.320;2022-07-25T03:54:08;99345.38;;;26.74;47.89
73501;BME280;61721;42.206;25.320;2022-07-25T03:56:40;99339.34;;;26.77;47.79
73501;BME280;61721;42.206;25.320;2022-07-25T03:59:07;99348.44;;;26.77;47.69
73501;BME280;61721;42.206;25.320;2022-07-25T04:01:35;99337.19;;;26.79;47.01
73501;BME280;61721;42.206;25.320;2022-07-25T04:04:03;99348.25;;;26.84;46.93
73501;BME280;61721;42.206;25.320;2022-07-25T04:06:30;99346.53;;;26.78;47.67
73501;BME280;61721;42.206;25.320;2022-07-25T04:08:57;99355.72;;;26.67;48.32
73501;BME280;61721;42.206;25.320;2022-07-25T04:11:26;99355.97;;;26.44;49.01
73501;BME280;61721;42.206;25.320;2022-07-25T04:13:55;99360.31;;;26.39;49.08
73501;BME280;61721;42.206;25.320;2022-07-25T04:16:23;99355.81;;;26.33;49.19
73501;BME280;61721;42.206;25.320;2022-07-25T04:18:50;99363.88;;;26.40;49.44
73501;BME280;61721;42.206;25.320;2022-07-25T04:21:17;99368.59;;;26.45;48.74
73501;BME280;61721;42.206;25.320;2022-07-25T04:23:45;99363.94;;;26.45;49.22
73501;BME280;61721;42.206;25.320;2022-07-25T04:26:12;99362.03;;;26.46;49.08
73501;BME280;61721;42.206;25.320;2022-07-25T04:28:40;99364.19;;;26.44;48.97
73501;BME280;61721;42.206;25.320;2022-07-25T04:31:08;99365.41;;;26.53;49.01
73501;BME280;61721;42.206;25.320;2022-07-25T04:33:35;99366.63;;;26.62;48.28
73501;BME280;61721;42.206;25.320;2022-07-25T04:36:03;99364.91;;;26.56;48.58
73501;BME280;61721;42.206;25.320;2022-07-25T04:38:31;99372.56;;;26.54;48.86
73501;BME280;61721;42.206;25.320;2022-07-25T04:40:58;99364.41;;;26.59;48.67
73501;BME280;61721;42.206;25.320;2022-07-25T04:43:25;99370.84;;;26.69;48.74
73501;BME280;61721;42.206;25.320;2022-07-25T04:45:54;99373.78;;;26.85;48.13
73501;BME280;61721;42.206;25.320;2022-07-25T04:48:21;99373.03;;;27.11;47.16
73501;BME280;61721;42.206;25.320;2022-07-25T04:50:49;99374.28;;;27.25;47.23
73501;BME280;61721;42.206;25.320;2022-07-25T04:53:16;99375.78;;;27.33;46.82
73501;BME280;61721;42.206;25.320;2022-07-25T04:55:43;99375.34;;;27.46;47.02
73501;BME280;61721;42.206;25.320;2022-07-25T04:58:10;99386.16;;;27.52;46.56
73501;BME280;61721;42.206;25.320;2022-07-25T05:00:37;99379.25;;;27.50;46.89
73501;BME280;61721;42.206;25.320;2022-07-25T05:03:06;99378.25;;;27.61;46.47
73501;BME280;61721;42.206;25.320;2022-07-25T05:05:33;99372.19;;;27.91;45.45
73501;BME280;61721;42.206;25.320;2022-07-25T05:08:00;99376.84;;;28.17;44.95
73501;BME280;61721;42.206;25.320;2022-07-25T05:10:29;99378.91;;;28.42;44.55
73501;BME280;61721;42.206;25.320;2022-07-25T05:12:57;99370.78;;;28.62;43.61
73501;BME280;61721;42.206;25.320;2022-07-25T05:15:24;99377.53;;;28.86;43.03
73501;BME280;61721;42.206;25.320;2022-07-25T05:17:52;99369.31;;;29.07;42.57
73501;BME280;61721;42.206;25.320;2022-07-25T05:20:20;99369.91;;;29.14;42.40
73501;BME280;61721;42.206;25.320;2022-07-25T05:22:48;99367.72;;;29.21;42.77
73501;BME280;61721;42.206;25.320;2022-07-25T05:25:17;99368.56;;;29.26;41.81
73501;BME280;61721;42.206;25.320;2022-07-25T05:27:45;99371.13;;;29.48;41.61
73501;BME280;61721;42.206;25.320;2022-07-25T05:30:13;99370.88;;;29.65;41.71
73501;BME280;61721;42.206;25.320;2022-07-25T05:32:40;99365.63;;;29.79;41.18
73501;BME280;61721;42.206;25.320;2022-07-25T05:35:08;99367.56;;;29.88;41.11
73501;BME280;61721;42.206;25.320;2022-07-25T05:37:37;99374.50;;;30.01;40.97
73501;BME280;61721;42.206;25.320;2022-07-25T05:40:06;99363.44;;;30.11;40.36
73501;BME280;61721;42.206;25.320;2022-07-25T05:42:33;99374.50;;;30.01;40.65
73501;BME280;61721;42.206;25.320;2022-07-25T05:45:01;99380.03;;;29.91;40.44
73501;BME280;61721;42.206;25.320;2022-07-25T05:47:28;99373.91;;;29.89;40.10
73501;BME280;61721;42.206;25.320;2022-07-25T05:49:56;99367.88;;;29.97;39.81
73501;BME280;61721;42.206;25.320;2022-07-25T05:52:24;99368.97;;;30.01;40.03
73501;BME280;61721;42.206;25.320;2022-07-25T05:54:54;99368.94;;;29.86;40.38
73501;BME280;61721;42.206;25.320;2022-07-25T05:57:21;99366.22;;;30.06;39.89
73501;BME280;61721;42.206;25.320;2022-07-25T05:59:49;99366.75;;;30.03;39.95
73501;BME280;61721;42.206;25.320;2022-07-25T06:02:16;99360.09;;;30.19;40.01
73501;BME280;61721;42.206;25.320;2022-07-25T06:04:43;99362.31;;;30.27;40.18
73501;BME280;61721;42.206;25.320;2022-07-25T06:07:10;99360.97;;;29.94;40.42
73501;BME280;61721;42.206;25.320;2022-07-25T06:09:37;99370.03;;;29.64;40.98
73501;BME280;61721;42.206;25.320;2022-07-25T06:12:06;99358.75;;;29.71;40.87
73501;BME280;61721;42.206;25.320;2022-07-25T06:14:33;99365.13;;;29.97;40.57
73501;BME280;61721;42.206;25.320;2022-07-25T06:17:00;99358.44;;;29.77;40.75
73501;BME280;61721;42.206;25.320;2022-07-25T06:19:27;99359.28;;;29.78;41.29
73501;BME280;61721;42.206;25.320;2022-07-25T06:21:54;99349.06;;;30.09;40.72
73501;BME280;61721;42.206;25.320;2022-07-25T06:24:22;99350.19;;;30.03;40.59
73501;BME280;61721;42.206;25.320;2022-07-25T06:26:49;99344.13;;;29.96;41.00
73501;BME280;61721;42.206;25.320;2022-07-25T06:29:17;99340.72;;;30.39;39.88
73501;BME280;61721;42.206;25.320;2022-07-25T06:31:44;99351.59;;;31.05;38.96
73501;BME280;61721;42.206;25.320;2022-07-25T06:34:11;99350.09;;;31.28;38.31
73501;BME280;61721;42.206;25.320;2022-07-25T06:36:38;99352.94;;;31.57;38.01
73501;BME280;61721;42.206;25.320;2022-07-25T06:39:06;99349.66;;;31.89;37.60
73501;BME280;61721;42.206;25.320;2022-07-25T06:41:33;99355.00;;;31.75;37.67
73501;BME280;61721;42.206;25.320;2022-07-25T06:44:01;99349.47;;;31.75;36.92
73501;BME280;61721;42.206;25.320;2022-07-25T06:46:29;99350.50;;;31.89;37.07
73501;BME280;61721;42.206;25.320;2022-07-25T06:48:57;99357.81;;;32.04;36.86
73501;BME280;61721;42.206;25.320;2022-07-25T06:51:25;99343.75;;;32.29;35.73
73501;BME280;61721;42.206;25.320;2022-07-25T06:53:52;99348.47;;;32.29;36.25
73501;BME280;61721;42.206;25.320;2022-07-25T06:56:19;99346.19;;;32.83;35.55
73501;BME280;61721;42.206;25.320;2022-07-25T06:58:46;99350.13;;;32.53;35.88
73501;BME280;61721;42.206;25.320;2022-07-25T07:01:13;99352.22;;;32.90;35.61
73501;BME280;61721;42.206;25.320;2022-07-25T07:03:42;99352.59;;;33.02;35.00
73501;BME280;61721;42.206;25.320;2022-07-25T07:06:09;99362.44;;;33.14;34.37
73501;BME280;61721;42.206;25.320;2022-07-25T07:08:36;99361.31;;;33.15;34.51
73501;BME280;61721;42.206;25.320;2022-07-25T07:11:04;99359.84;;;33.78;33.53
73501;BME280;61721;42.206;25.320;2022-07-25T07:13:32;99366.59;;;33.16;34.65
73501;BME280;61721;42.206;25.320;2022-07-25T07:16:00;99367.94;;;33.19;34.63
73501;BME280;61721;42.206;25.320;2022-07-25T07:18:27;99358.25;;;33.53;34.05
73501;BME280;61721;42.206;25.320;2022-07-25T07:20:56;99358.56;;;33.89;33.65
73501;BME280;61721;42.206;25.320;2022-07-25T07:23:23;99355.84;;;34.03;32.81
73501;BME280;61721;42.206;25.320;2022-07-25T07:25:50;99359.50;;;33.99;33.25
73501;BME280;61721;42.206;25.320;2022-07-25T07:28:19;99358.78;;;34.39;32.65
73501;BME280;61721;42.206;25.320;2022-07-25T07:30:51;99360.78;;;34.39;32.53
73501;BME280;61721;42.206;25.320;2022-07-25T07:33:30;99361.06;;;34.64;32.41
73501;BME280;61721;42.206;25.320;2022-07-25T07:36:08;99358.00;;;35.07;31.58
73501;BME280;61721;42.206;25.320;2022-07-25T07:38:35;99360.47;;;35.22;31.63
73501;BME280;61721;42.206;25.320;2022-07-25T07:41:03;99355.25;;;35.43;30.68
73501;BME280;61721;42.206;25.320;2022-07-25T07:43:57;99369.66;;;35.58;30.72
73501;BME280;61721;42.206;25.320;2022-07-25T07:46:25;99362.53;;;35.66;30.76
73501;BME280;61721;42.206;25.320;2022-07-25T07:48:57;99356.25;;;35.60;30.90
73501;BME280;61721;42.206;25.320;2022-07-25T07:51:26;99363.22;;;35.72;30.65
73501;BME280;61721;42.206;25.320;2022-07-25T07:53:56;99361.34;;;35.81;29.68
73501;BME280;61721;42.206;25.320;2022-07-25T07:56:48;99353.22;;;35.93;29.36
73501;BME280;61721;42.206;25.320;2022-07-25T07:59:16;99353.13;;;36.07;29.47
73501;BME280;61721;42.206;25.320;2022-07-25T08:01:43;99348.25;;;36.12;29.45
73501;BME280;61721;42.206;25.320;2022-07-25T08:04:20;99356.59;;;36.26;29.43
73501;BME280;61721;42.206;25.320;2022-07-25T08:06:49;99364.09;;;35.58;29.29
73501;BME280;61721;42.206;25.320;2022-07-25T08:09:16;99366.22;;;34.57;30.35
73501;BME280;61721;42.206;25.320;2022-07-25T08:11:43;99358.63;;;34.76;30.76
73501;BME280;61721;42.206;25.320;2022-07-25T08:14:11;99370.69;;;34.72;30.52
73501;BME280;61721;42.206;25.320;2022-07-25T08:16:38;99363.56;;;34.80;30.44
73501;BME280;61721;42.206;25.320;2022-07-25T08:19:05;99367.88;;;34.58;30.47
73501;BME280;61721;42.206;25.320;2022-07-25T08:21:32;99365.31;;;35.03;30.42
73501;BME280;61721;42.206;25.320;2022-07-25T08:24:01;99358.19;;;35.10;29.90
73501;BME280;61721;42.206;25.320;2022-07-25T08:26:28;99363.16;;;35.13;29.62
73501;BME280;61721;42.206;25.320;2022-07-25T08:28:58;99365.94;;;34.59;30.08
73501;BME280;61721;42.206;25.320;2022-07-25T08:31:25;99367.75;;;34.50;30.12
73501;BME280;61721;42.206;25.320;2022-07-25T08:33:53;99375.56;;;34.34;31.05
73501;BME280;61721;42.206;25.320;2022-07-25T08:36:20;99364.94;;;33.90;31.76
73501;BME280;61721;42.206;25.320;2022-07-25T08:38:49;99366.69;;;34.78;30.73
73501;BME280;61721;42.206;25.320;2022-07-25T08:41:18;99375.69;;;35.38;29.59
73501;BME280;61721;42.206;25.320;2022-07-25T08:43:47;99380.06;;;35.89;28.91
73501;BME280;61721;42.206;25.320;2022-07-25T08:46:15;99369.19;;;36.23;28.35
73501;BME280;61721;42.206;25.320;2022-07-25T08:48:45;99374.91;;;35.24;30.04
73501;BME280;61721;42.206;25.320;2022-07-25T08:51:13;99384.19;;;34.00;31.75
73501;BME280;61721;42.206;25.320;2022-07-25T08:53:41;99376.72;;;34.33;31.11
73501;BME280;61721;42.206;25.320;2022-07-25T08:56:10;99382.28;;;34.33;31.79
73501;BME280;61721;42.206;25.320;2022-07-25T08:58:42;99378.09;;;34.63;31.00
73501;BME280;61721;42.206;25.320;2022-07-25T09:01:16;99373.28;;;34.68;31.47
73501;BME280;61721;42.206;25.320;2022-07-25T09:03:55;99371.41;;;34.64;31.35
73501;BME280;61721;42.206;25.320;2022-07-25T09:06:27;99372.44;;;35.09;30.88
73501;BME280;61721;42.206;25.320;2022-07-25T09:09:11;99374.69;;;35.56;29.50
73501;BME280;61721;42.206;25.320;2022-07-25T09:11:59;99365.50;;;35.56;30.13
73501;BME280;61721;42.206;25.320;2022-07-25T09:14:42;99365.25;;;35.80;29.96
73501;BME280;61721;42.206;25.320;2022-07-25T09:17:10;99369.38;;;35.82;29.95
73501;BME280;61721;42.206;25.320;2022-07-25T09:19:51;99358.25;;;36.35;28.56
73501;BME280;61721;42.206;25.320;2022-07-25T09:22:20;99361.53;;;36.37;28.61
73501;BME280;61721;42.206;25.320;2022-07-25T09:24:49;99369.19;;;36.23;29.65
73501;BME280;61721;42.206;25.320;2022-07-25T09:27:23;99369.66;;;35.58;29.74
73501;BME280;61721;42.206;25.320;2022-07-25T09:32:38;99359.19;;;36.00;29.92
73501;BME280;61721;42.206;25.320;2022-07-25T09:35:06;99359.94;;;35.70;29.77
73501;BME280;61721;42.206;25.320;2022-07-25T09:37:34;99352.34;;;35.48;29.98
73501;BME280;61721;42.206;25.320;2022-07-25T09:40:10;99361.09;;;34.92;31.85
73501;BME280;61721;42.206;25.320;2022-07-25T09:42:37;99357.16;;;35.06;31.08
73501;BME280;61721;42.206;25.320;2022-07-25T09:45:14;99346.25;;;35.10;31.07
73501;BME280;61721;42.206;25.320;2022-07-25T09:47:56;99342.06;;;35.93;29.86
73501;BME280;61721;42.206;25.320;2022-07-25T09:50:28;99342.69;;;35.45;30.77
73501;BME280;61721;42.206;25.320;2022-07-25T09:52:58;99346.03;;;35.06;30.76
73501;BME280;61721;42.206;25.320;2022-07-25T09:55:30;99337.19;;;34.91;31.45
73501;BME280;61721;42.206;25.320;2022-07-25T09:58:01;99338.22;;;34.40;31.96
73501;BME280;61721;42.206;25.320;2022-07-25T10:00:30;99337.28;;;35.13;30.36
73501;BME280;61721;42.206;25.320;2022-07-25T10:03:36;99329.03;;;36.64;28.92
73501;BME280;61721;42.206;25.320;2022-07-25T10:06:36;99333.09;;;36.97;28.04
73501;BME280;61721;42.206;25.320;2022-07-25T10:09:17;99333.00;;;36.32;29.31
73501;BME280;61721;42.206;25.320;2022-07-25T10:12:05;99317.53;;;37.13;27.51
73501;BME280;61721;42.206;25.320;2022-07-25T10:14:36;99329.13;;;35.52;30.18
73501;BME280;61721;42.206;25.320;2022-07-25T10:17:06;99323.28;;;35.98;29.23
73501;BME280;61721;42.206;25.320;2022-07-25T10:19:43;99320.53;;;36.07;28.75
73501;BME280;61721;42.206;25.320;2022-07-25T10:22:13;99319.66;;;36.20;28.94
73501;BME280;61721;42.206;25.320;2022-07-25T10:24:44;99319.38;;;36.08;28.37
73501;BME280;61721;42.206;25.320;2022-07-25T10:27:13;99322.34;;;35.81;28.34
73501;BME280;61721;42.206;25.320;2022-07-25T10:29:41;99307.72;;;36.68;27.98
73501;BME280;61721;42.206;25.320;2022-07-25T10:32:12;99305.31;;;36.35;27.82
73501;BME280;61721;42.206;25.320;2022-07-25T10:34:39;99307.38;;;35.99;28.07
73501;BME280;61721;42.206;25.320;2022-07-25T10:37:35;99301.28;;;36.59;27.84
73501;BME280;61721;42.206;25.320;2022-07-25T10:40:25;99297.25;;;36.34;27.82
73501;BME280;61721;42.206;25.320;2022-07-25T10:42:59;99301.69;;;35.82;28.95
73501;BME280;61721;42.206;25.320;2022-07-25T10:45:36;99301.78;;;35.32;29.26
73501;BME280;61721;42.206;25.320;2022-07-25T10:51:09;99295.38;;;34.96;30.32
73501;BME280;61721;42.206;25.320;2022-07-25T10:53:47;99298.66;;;34.98;30.69
73501;BME280;61721;42.206;25.320;2022-07-25T10:56:17;99297.56;;;34.71;30.82
73501;BME280;61721;42.206;25.320;2022-07-25T10:58:47;99300.72;;;34.24;30.75
73501;BME280;61721;42.206;25.320;2022-07-25T11:01:20;99295.03;;;33.69;32.12
73501;BME280;61721;42.206;25.320;2022-07-25T11:03:48;99298.41;;;33.66;32.06
73501;BME280;61721;42.206;25.320;2022-07-25T11:06:16;99301.75;;;33.63;32.93
73501;BME280;61721;42.206;25.320;2022-07-25T11:09:25;99301.63;;;33.73;32.51
73501;BME280;61721;42.206;25.320;2022-07-25T11:11:59;99288.47;;;33.79;31.75
73501;BME280;61721;42.206;25.320;2022-07-25T11:14:30;99289.31;;;33.79;31.32
73501;BME280;61721;42.206;25.320;2022-07-25T11:17:15;99280.22;;;33.74;30.96
73501;BME280;61721;42.206;25.320;2022-07-25T11:19:54;99286.13;;;33.86;30.99
73501;BME280;61721;42.206;25.320;2022-07-25T11:22:22;99286.28;;;34.08;29.98
73501;BME280;61721;42.206;25.320;2022-07-25T11:24:56;99283.84;;;34.20;30.26
73501;BME280;61721;42.206;25.320;2022-07-25T11:27:26;99280.38;;;34.28;29.76
73501;BME280;61721;42.206;25.320;2022-07-25T11:30:15;99284.38;;;34.63;29.58
73501;BME280;61721;42.206;25.320;2022-07-25T11:32:49;99275.97;;;34.68;29.59
73501;BME280;61721;42.206;25.320;2022-07-25T11:35:23;99271.38;;;35.00;29.25
73501;BME280;61721;42.206;25.320;2022-07-25T11:37:54;99269.03;;;35.29;27.97
73501;BME280;61721;42.206;25.320;2022-07-25T11:40:58;99263.44;;;35.51;27.52
73501;BME280;61721;42.206;25.320;2022-07-25T11:43:29;99266.84;;;36.15;27.38
73501;BME280;61721;42.206;25.320;2022-07-25T11:45:58;99267.44;;;36.43;26.54
73501;BME280;61721;42.206;25.320;2022-07-25T11:48:36;99263.34;;;36.49;26.15
73501;BME280;61721;42.206;25.320;2022-07-25T11:51:11;99256.53;;;36.64;26.26
73501;BME280;61721;42.206;25.320;2022-07-25T11:54:06;99255.28;;;37.04;25.32
73501;BME280;61721;42.206;25.320;2022-07-25T11:56:38;99244.41;;;37.80;23.97
73501;BME280;61721;42.206;25.320;2022-07-25T11:59:16;99240.53;;;37.38;24.63
73501;BME280;61721;42.206;25.320;2022-07-25T12:01:49;99239.28;;;37.91;24.31
73501;BME280;61721;42.206;25.320;2022-07-25T12:04:28;99230.63;;;37.75;24.87
73501;BME280;61721;42.206;25.320;2022-07-25T12:07:07;99253.00;;;37.23;25.12
73501;BME280;61721;42.206;25.320;2022-07-25T12:09:54;99243.44;;;36.90;25.56
73501;BME280;61721;42.206;25.320;2022-07-25T12:12:25;99248.66;;;36.66;25.75
73501;BME280;61721;42.206;25.320;2022-07-25T12:14:58;99237.22;;;35.66;26.93
73501;BME280;61721;42.206;25.320;2022-07-25T12:17:27;99242.28;;;35.06;27.98
73501;BME280;61721;42.206;25.320;2022-07-25T12:23:31;99232.44;;;35.00;27.76
73501;BME280;61721;42.206;25.320;2022-07-25T12:26:10;99227.91;;;35.26;28.08
73501;BME280;61721;42.206;25.320;2022-07-25T12:28:43;99218.41;;;35.72;27.67
73501;BME280;61721;42.206;25.320;2022-07-25T12:34:37;99212.97;;;35.44;26.78
73501;BME280;61721;42.206;25.320;2022-07-25T12:37:05;99217.72;;;35.66;27.12
73501;BME280;61721;42.206;25.320;2022-07-25T12:39:32;99219.19;;;35.94;26.77
73501;BME280;61721;42.206;25.320;2022-07-25T12:42:03;99210.81;;;35.94;26.62
73501;BME280;61721;42.206;25.320;2022-07-25T12:44:32;99215.84;;;35.84;26.13
73501;BME280;61721;42.206;25.320;2022-07-25T12:47:04;99210.56;;;35.74;26.95
73501;BME280;61721;42.206;25.320;2022-07-25T12:49:32;99203.06;;;35.83;26.46
73501;BME280;61721;42.206;25.320;2022-07-25T12:52:03;99204.81;;;36.01;26.82
73501;BME280;61721;42.206;25.320;2022-07-25T12:54:32;99197.19;;;36.24;25.93
73501;BME280;61721;42.206;25.320;2022-07-25T12:56:59;99193.81;;;36.53;25.71
73501;BME280;61721;42.206;25.320;2022-07-25T12:59:28;99197.00;;;36.94;24.92
73501;BME280;61721;42.206;25.320;2022-07-25T13:01:56;99186.69;;;37.12;24.41
73501;BME280;61721;42.206;25.320;2022-07-25T13:04:25;99189.97;;;37.22;24.30
73501;BME280;61721;42.206;25.320;2022-07-25T13:06:54;99182.06;;;37.42;24.26
73501;BME280;61721;42.206;25.320;2022-07-25T13:09:21;99189.47;;;37.20;24.14
73501;BME280;61721;42.206;25.320;2022-07-25T13:11:48;99184.50;;;37.52;24.25
73501;BME280;61721;42.206;25.320;2022-07-25T13:14:16;99187.81;;;37.02;25.50
73501;BME280;61721;42.206;25.320;2022-07-25T13:16:44;99186.34;;;36.96;25.63